sensor_id;sensor_type;location;lat;lon;timestamp;P1;durP1;ratioP1;P2;durP2;ratioP2
77402;SDS011;66472;53.046;8.656;2023-06-05T00:04:49;30.05;;;27.98;;
77402;SDS011;66472;53.046;8.656;2023-06-05T00:09:46;31.93;;;29.30;;
77402;SDS011;66472;53.046;8.656;2023-06-05T00:14:42;32.08;;;29.98;;
77402;SDS011;66472;53.046;8.656;2023-06-05T00:19:38;35.30;;;32.53;;
77402;SDS011;66472;53.046;8.656;2023-06-05T00:24:33;33.30;;;31.30;;
77402;SDS011;66472;53.046;8.656;2023-06-05T00:29:28;32.23;;;30.03;;
77402;SDS011;66472;53.046;8.656;2023-06-05T00:34:23;36.20;;;33.57;;
77402;SDS011;66472;53.046;8.656;2023-06-05T00:39:19;34.80;;;32.03;;
77402;SDS011;66472;53.046;8.656;2023-06-05T00:44:17;36.17;;;33.60;;
77402;SDS011;66472;53.046;8.656;2023-06-05T00:49:12;36.97;;;34.07;;
77402;SDS011;66472;53.046;8.656;2023-06-05T00:54:08;35.67;;;33.22;;
77402;SDS011;66472;53.046;8.656;2023-06-05T00:59:03;37.20;;;34.30;;
77402;SDS011;66472;53.046;8.656;2023-06-05T01:03:59;37.37;;;34.83;;
77402;SDS011;66472;53.046;8.656;2023-06-05T01:08:54;40.37;;;37.43;;
77402;SDS011;66472;53.046;8.656;2023-06-05T01:14:01;39.60;;;37.00;;
77402;SDS011;66472;53.046;8.656;2023-06-05T01:19:01;38.60;;;36.10;;
77402;SDS011;66472;53.046;8.656;2023-06-05T01:24:00;40.03;;;37.40;;
77402;SDS011;66472;53.046;8.656;2023-06-05T01:28:56;44.50;;;41.00;;
77402;SDS011;66472;53.046;8.656;2023-06-05T01:33:57;43.87;;;41.17;;
77402;SDS011;66472;53.046;8.656;2023-06-05T01:38:56;49.37;;;46.13;;
77402;SDS011;66472;53.046;8.656;2023-06-05T01:43:52;51.17;;;47.60;;
77402;SDS011;66472;53.046;8.656;2023-06-05T01:48:48;50.83;;;47.33;;
77402;SDS011;66472;53.046;8.656;2023-06-05T01:53:44;53.80;;;50.43;;
77402;SDS011;66472;53.046;8.656;2023-06-05T01:58:43;52.73;;;49.33;;
77402;SDS011;66472;53.046;8.656;2023-06-05T02:03:39;56.00;;;52.50;;
77402;SDS011;66472;53.046;8.656;2023-06-05T02:08:35;52.37;;;49.03;;
77402;SDS011;66472;53.046;8.656;2023-06-05T02:13:30;48.65;;;45.83;;
77402;SDS011;66472;53.046;8.656;2023-06-05T02:18:28;53.13;;;49.70;;
77402;SDS011;66472;53.046;8.656;2023-06-05T02:23:24;54.03;;;50.73;;
77402;SDS011;66472;53.046;8.656;2023-06-05T02:28:20;57.03;;;53.30;;
77402;SDS011;66472;53.046;8.656;2023-06-05T02:33:15;49.33;;;46.03;;
77402;SDS011;66472;53.046;8.656;2023-06-05T02:38:11;48.10;;;44.50;;
77402;SDS011;66472;53.046;8.656;2023-06-05T02:43:08;49.07;;;45.67;;
77402;SDS011;66472;53.046;8.656;2023-06-05T02:48:03;56.93;;;53.33;;
77402;SDS011;66472;53.046;8.656;2023-06-05T02:53:00;51.07;;;47.57;;
77402;SDS011;66472;53.046;8.656;2023-06-05T02:58:01;56.23;;;52.73;;
77402;SDS011;66472;53.046;8.656;2023-06-05T03:03:05;48.33;;;45.00;;
77402;SDS011;66472;53.046;8.656;2023-06-05T03:08:03;56.77;;;52.67;;
77402;SDS011;66472;53.046;8.656;2023-06-05T03:13:02;54.47;;;50.37;;
77402;SDS011;66472;53.046;8.656;2023-06-05T03:18:00;58.63;;;54.90;;
77402;SDS011;66472;53.046;8.656;2023-06-05T03:22:57;52.93;;;49.17;;
77402;SDS011;66472;53.046;8.656;2023-06-05T03:27:53;57.00;;;53.37;;
77402;SDS011;66472;53.046;8.656;2023-06-05T03:32:51;55.13;;;51.73;;
77402;SDS011;66472;53.046;8.656;2023-06-05T03:37:47;49.97;;;46.53;;
77402;SDS011;66472;53.046;8.656;2023-06-05T03:42:43;50.00;;;46.70;;
77402;SDS011;66472;53.046;8.656;2023-06-05T03:47:38;49.50;;;46.33;;
77402;SDS011;66472;53.046;8.656;2023-06-05T03:52:36;52.33;;;49.17;;
77402;SDS011;66472;53.046;8.656;2023-06-05T03:57:32;51.23;;;47.73;;
77402;SDS011;66472;53.046;8.656;2023-06-05T04:02:28;50.10;;;46.97;;
77402;SDS011;66472;53.046;8.656;2023-06-05T04:07:23;47.75;;;44.28;;
77402;SDS011;66472;53.046;8.656;2023-06-05T04:12:19;46.27;;;42.90;;
77402;SDS011;66472;53.046;8.656;2023-06-05T04:17:16;46.70;;;43.53;;
77402;SDS011;66472;53.046;8.656;2023-06-05T04:22:12;43.80;;;40.97;;
77402;SDS011;66472;53.046;8.656;2023-06-05T04:27:07;43.50;;;40.73;;
77402;SDS011;66472;53.046;8.656;2023-06-05T04:32:04;42.97;;;40.17;;
77402;SDS011;66472;53.046;8.656;2023-06-05T04:37:00;40.63;;;37.70;;
77402;SDS011;66472;53.046;8.656;2023-06-05T04:41:56;35.30;;;32.90;;
77402;SDS011;66472;53.046;8.656;2023-06-05T04:46:54;27.67;;;25.63;;
77402;SDS011;66472;53.046;8.656;2023-06-05T04:51:50;26.17;;;24.27;;
77402;SDS011;66472;53.046;8.656;2023-06-05T04:56:46;27.37;;;25.27;;
77402;SDS011;66472;53.046;8.656;2023-06-05T05:01:41;27.07;;;25.27;;
77402;SDS011;66472;53.046;8.656;2023-06-05T05:06:37;22.17;;;20.20;;
77402;SDS011;66472;53.046;8.656;2023-06-05T05:11:32;21.83;;;20.00;;
77402;SDS011;66472;53.046;8.656;2023-06-05T05:16:28;18.40;;;16.80;;
77402;SDS011;66472;53.046;8.656;2023-06-05T05:21:27;18.10;;;16.60;;
77402;SDS011;66472;53.046;8.656;2023-06-05T05:26:27;17.60;;;15.97;;
77402;SDS011;66472;53.046;8.656;2023-06-05T05:31:23;16.70;;;15.23;;
77402;SDS011;66472;53.046;8.656;2023-06-05T05:36:18;14.63;;;13.37;;
77402;SDS011;66472;53.046;8.656;2023-06-05T05:41:13;14.17;;;13.17;;
77402;SDS011;66472;53.046;8.656;2023-06-05T05:46:09;14.37;;;13.07;;
77402;SDS011;66472;53.046;8.656;2023-06-05T05:51:05;14.60;;;13.17;;
77402;SDS011;66472;53.046;8.656;2023-06-05T05:56:01;17.80;;;16.03;;
77402;SDS011;66472;53.046;8.656;2023-06-05T06:00:56;14.03;;;12.60;;
77402;SDS011;66472;53.046;8.656;2023-06-05T06:05:51;16.70;;;11.43;;
77402;SDS011;66472;53.046;8.656;2023-06-05T06:10:47;13.00;;;11.27;;
77402;SDS011;66472;53.046;8.656;2023-06-05T06:15:43;16.50;;;10.90;;
77402;SDS011;66472;53.046;8.656;2023-06-05T06:20:38;12.70;;;11.20;;
77402;SDS011;66472;53.046;8.656;2023-06-05T06:25:34;13.83;;;10.50;;
77402;SDS011;66472;53.046;8.656;2023-06-05T06:30:29;15.30;;;10.67;;
77402;SDS011;66472;53.046;8.656;2023-06-05T06:35:25;13.50;;;12.10;;
77402;SDS011;66472;53.046;8.656;2023-06-05T06:40:20;12.93;;;11.67;;
77402;SDS011;66472;53.046;8.656;2023-06-05T06:45:16;12.47;;;11.37;;
77402;SDS011;66472;53.046;8.656;2023-06-05T06:50:11;16.23;;;10.73;;
77402;SDS011;66472;53.046;8.656;2023-06-05T06:55:07;11.90;;;8.63;;
77402;SDS011;66472;53.046;8.656;2023-06-05T07:00:03;15.13;;;9.53;;
77402;SDS011;66472;53.046;8.656;2023-06-05T07:05:03;18.60;;;11.23;;
77402;SDS011;66472;53.046;8.656;2023-06-05T07:09:59;17.77;;;10.37;;
77402;SDS011;66472;53.046;8.656;2023-06-05T07:14:54;21.90;;;12.47;;
77402;SDS011;66472;53.046;8.656;2023-06-05T07:19:49;20.70;;;10.37;;
77402;SDS011;66472;53.046;8.656;2023-06-05T07:24:45;13.37;;;10.87;;
77402;SDS011;66472;53.046;8.656;2023-06-05T07:29:41;16.13;;;11.57;;
77402;SDS011;66472;53.046;8.656;2023-06-05T07:34:36;13.97;;;11.00;;
77402;SDS011;66472;53.046;8.656;2023-06-05T07:39:31;12.40;;;10.27;;
77402;SDS011;66472;53.046;8.656;2023-06-05T07:44:27;16.80;;;9.20;;
77402;SDS011;66472;53.046;8.656;2023-06-05T07:49:23;8.67;;;7.67;;
77402;SDS011;66472;53.046;8.656;2023-06-05T07:54:19;14.33;;;6.43;;
77402;SDS011;66472;53.046;8.656;2023-06-05T07:59:16;8.90;;;6.93;;
77402;SDS011;66472;53.046;8.656;2023-06-05T08:04:12;12.53;;;6.43;;
77402;SDS011;66472;53.046;8.656;2023-06-05T08:09:07;9.60;;;6.27;;
77402;SDS011;66472;53.046;8.656;2023-06-05T08:14:04;6.73;;;6.10;;
77402;SDS011;66472;53.046;8.656;2023-06-05T08:19:01;15.63;;;6.87;;
77402;SDS011;66472;53.046;8.656;2023-06-05T08:23:56;11.65;;;6.97;;
77402;SDS011;66472;53.046;8.656;2023-06-05T08:28:51;8.17;;;6.83;;
77402;SDS011;66472;53.046;8.656;2023-06-05T08:33:47;10.20;;;7.23;;
77402;SDS011;66472;53.046;8.656;2023-06-05T08:38:42;10.80;;;6.50;;
77402;SDS011;66472;53.046;8.656;2023-06-05T08:43:38;8.65;;;6.40;;
77402;SDS011;66472;53.046;8.656;2023-06-05T08:48:36;12.48;;;7.20;;
77402;SDS011;66472;53.046;8.656;2023-06-05T08:53:32;10.15;;;8.00;;
77402;SDS011;66472;53.046;8.656;2023-06-05T08:58:29;9.30;;;8.30;;
77402;SDS011;66472;53.046;8.656;2023-06-05T09:03:24;7.30;;;6.60;;
77402;SDS011;66472;53.046;8.656;2023-06-05T09:08:30;8.20;;;7.40;;
77402;SDS011;66472;53.046;8.656;2023-06-05T09:13:27;9.68;;;6.97;;
77402;SDS011;66472;53.046;8.656;2023-06-05T09:18:54;7.13;;;6.00;;
77402;SDS011;66472;53.046;8.656;2023-06-05T09:23:50;9.93;;;6.97;;
77402;SDS011;66472;53.046;8.656;2023-06-05T09:28:55;6.93;;;6.38;;
77402;SDS011;66472;53.046;8.656;2023-06-05T09:33:57;12.82;;;7.63;;
77402;SDS011;66472;53.046;8.656;2023-06-05T09:38:52;7.15;;;5.72;;
77402;SDS011;66472;53.046;8.656;2023-06-05T09:43:48;8.48;;;6.22;;
77402;SDS011;66472;53.046;8.656;2023-06-05T09:48:52;6.90;;;6.28;;
77402;SDS011;66472;53.046;8.656;2023-06-05T09:53:52;7.63;;;6.93;;
77402;SDS011;66472;53.046;8.656;2023-06-05T09:58:48;11.18;;;7.40;;
77402;SDS011;66472;53.046;8.656;2023-06-05T10:03:56;9.10;;;6.55;;
77402;SDS011;66472;53.046;8.656;2023-06-05T10:08:52;6.82;;;6.07;;
77402;SDS011;66472;53.046;8.656;2023-06-05T10:13:48;7.90;;;7.05;;
77402;SDS011;66472;53.046;8.656;2023-06-05T10:18:47;9.63;;;6.82;;
77402;SDS011;66472;53.046;8.656;2023-06-05T10:23:57;7.53;;;6.85;;
77402;SDS011;66472;53.046;8.656;2023-06-05T10:28:59;7.47;;;6.68;;
77402;SDS011;66472;53.046;8.656;2023-06-05T10:34:10;6.88;;;6.28;;
77402;SDS011;66472;53.046;8.656;2023-06-05T10:39:08;7.30;;;6.63;;
77402;SDS011;66472;53.046;8.656;2023-06-05T10:44:04;8.63;;;7.28;;
77402;SDS011;66472;53.046;8.656;2023-06-05T10:54:05;10.00;;;7.63;;
77402;SDS011;66472;53.046;8.656;2023-06-05T10:59:11;8.65;;;7.85;;
77402;SDS011;66472;53.046;8.656;2023-06-05T11:04:06;9.30;;;8.43;;
77402;SDS011;66472;53.046;8.656;2023-06-05T11:09:12;11.73;;;7.25;;
77402;SDS011;66472;53.046;8.656;2023-06-05T11:14:07;14.05;;;8.02;;
77402;SDS011;66472;53.046;8.656;2023-06-05T11:24:13;7.70;;;7.00;;
77402;SDS011;66472;53.046;8.656;2023-06-05T11:29:12;11.43;;;8.85;;
77402;SDS011;66472;53.046;8.656;2023-06-05T11:34:11;7.97;;;6.38;;
77402;SDS011;66472;53.046;8.656;2023-06-05T11:39:08;10.15;;;7.47;;
77402;SDS011;66472;53.046;8.656;2023-06-05T11:44:03;10.50;;;8.07;;
77402;SDS011;66472;53.046;8.656;2023-06-05T11:48:58;9.30;;;8.52;;
77402;SDS011;66472;53.046;8.656;2023-06-05T11:53:53;7.60;;;6.85;;
77402;SDS011;66472;53.046;8.656;2023-06-05T11:58:49;11.02;;;10.10;;
77402;SDS011;66472;53.046;8.656;2023-06-05T12:03:44;7.20;;;6.60;;
77402;SDS011;66472;53.046;8.656;2023-06-05T12:08:41;6.88;;;6.28;;
77402;SDS011;66472;53.046;8.656;2023-06-05T12:13:50;9.95;;;9.05;;
77402;SDS011;66472;53.046;8.656;2023-06-05T12:18:46;10.50;;;9.60;;
77402;SDS011;66472;53.046;8.656;2023-06-05T12:23:43;8.55;;;7.65;;
77402;SDS011;66472;53.046;8.656;2023-06-05T12:28:38;8.60;;;7.90;;
77402;SDS011;66472;53.046;8.656;2023-06-05T12:33:45;8.75;;;7.93;;
77402;SDS011;66472;53.046;8.656;2023-06-05T12:38:40;6.63;;;5.93;;
77402;SDS011;66472;53.046;8.656;2023-06-05T12:43:36;8.15;;;6.70;;
77402;SDS011;66472;53.046;8.656;2023-06-05T12:48:31;8.55;;;7.95;;
77402;SDS011;66472;53.046;8.656;2023-06-05T12:53:26;7.77;;;7.10;;
77402;SDS011;66472;53.046;8.656;2023-06-05T12:58:22;7.15;;;6.55;;
77402;SDS011;66472;53.046;8.656;2023-06-05T13:03:17;9.65;;;6.60;;
77402;SDS011;66472;53.046;8.656;2023-06-05T13:08:12;7.57;;;7.07;;
77402;SDS011;66472;53.046;8.656;2023-06-05T13:13:08;7.50;;;6.80;;
77402;SDS011;66472;53.046;8.656;2023-06-05T13:18:03;6.90;;;6.22;;
77402;SDS011;66472;53.046;8.656;2023-06-05T13:22:58;11.90;;;7.70;;
77402;SDS011;66472;53.046;8.656;2023-06-05T13:27:54;8.25;;;7.15;;
77402;SDS011;66472;53.046;8.656;2023-06-05T13:32:49;7.70;;;7.00;;
77402;SDS011;66472;53.046;8.656;2023-06-05T13:37:45;8.57;;;7.15;;
77402;SDS011;66472;53.046;8.656;2023-06-05T13:42:43;8.65;;;7.85;;
77402;SDS011;66472;53.046;8.656;2023-06-05T13:47:39;9.05;;;8.23;;
77402;SDS011;66472;53.046;8.656;2023-06-05T13:52:34;8.25;;;7.60;;
77402;SDS011;66472;53.046;8.656;2023-06-05T13:57:29;8.73;;;7.93;;
77402;SDS011;66472;53.046;8.656;2023-06-05T14:02:25;7.93;;;7.23;;
77402;SDS011;66472;53.046;8.656;2023-06-05T14:07:20;6.93;;;6.33;;
77402;SDS011;66472;53.046;8.656;2023-06-05T14:12:15;7.97;;;7.40;;
77402;SDS011;66472;53.046;8.656;2023-06-05T14:17:12;8.38;;;7.68;;
77402;SDS011;66472;53.046;8.656;2023-06-05T14:22:08;9.60;;;6.47;;
77402;SDS011;66472;53.046;8.656;2023-06-05T14:27:03;7.70;;;7.10;;
77402;SDS011;66472;53.046;8.656;2023-06-05T14:31:59;8.05;;;7.28;;
77402;SDS011;66472;53.046;8.656;2023-06-05T14:36:54;7.68;;;7.07;;
77402;SDS011;66472;53.046;8.656;2023-06-05T14:41:49;8.17;;;7.47;;
77402;SDS011;66472;53.046;8.656;2023-06-05T14:46:45;12.13;;;10.70;;
77402;SDS011;66472;53.046;8.656;2023-06-05T14:51:42;10.55;;;9.93;;
77402;SDS011;66472;53.046;8.656;2023-06-05T14:56:37;8.98;;;8.38;;
77402;SDS011;66472;53.046;8.656;2023-06-05T15:01:33;8.10;;;7.35;;
77402;SDS011;66472;53.046;8.656;2023-06-05T15:06:28;11.00;;;7.50;;
77402;SDS011;66472;53.046;8.656;2023-06-05T15:11:23;11.35;;;10.43;;
77402;SDS011;66472;53.046;8.656;2023-06-05T15:16:19;13.00;;;8.97;;
77402;SDS011;66472;53.046;8.656;2023-06-05T15:21:14;8.73;;;7.88;;
77402;SDS011;66472;53.046;8.656;2023-06-05T15:26:09;9.38;;;8.65;;
77402;SDS011;66472;53.046;8.656;2023-06-05T15:31:05;8.90;;;8.10;;
77402;SDS011;66472;53.046;8.656;2023-06-05T15:36:01;6.63;;;6.03;;
77402;SDS011;66472;53.046;8.656;2023-06-05T15:40:57;7.05;;;6.05;;
77402;SDS011;66472;53.046;8.656;2023-06-05T15:45:52;8.75;;;7.05;;
77402;SDS011;66472;53.046;8.656;2023-06-05T15:50:48;6.75;;;6.15;;
77402;SDS011;66472;53.046;8.656;2023-06-05T15:55:43;8.70;;;6.88;;
77402;SDS011;66472;53.046;8.656;2023-06-05T16:00:40;7.60;;;6.85;;
77402;SDS011;66472;53.046;8.656;2023-06-05T16:05:36;7.75;;;6.90;;
77402;SDS011;66472;53.046;8.656;2023-06-05T16:10:31;7.45;;;6.72;;
77402;SDS011;66472;53.046;8.656;2023-06-05T16:15:27;22.23;;;7.30;;
77402;SDS011;66472;53.046;8.656;2023-06-05T16:20:22;7.90;;;7.23;;
77402;SDS011;66472;53.046;8.656;2023-06-05T16:25:17;7.38;;;5.90;;
77402;SDS011;66472;53.046;8.656;2023-06-05T16:30:12;7.38;;;6.63;;
77402;SDS011;66472;53.046;8.656;2023-06-05T16:35:08;7.10;;;6.57;;
77402;SDS011;66472;53.046;8.656;2023-06-05T16:40:04;7.70;;;6.95;;
77402;SDS011;66472;53.046;8.656;2023-06-05T16:44:59;6.80;;;5.55;;
77402;SDS011;66472;53.046;8.656;2023-06-05T16:49:54;7.97;;;5.90;;
77402;SDS011;66472;53.046;8.656;2023-06-05T16:54:50;9.73;;;9.02;;
77402;SDS011;66472;53.046;8.656;2023-06-05T16:59:45;8.90;;;8.10;;
77402;SDS011;66472;53.046;8.656;2023-06-05T17:04:40;7.70;;;6.88;;
77402;SDS011;66472;53.046;8.656;2023-06-05T17:09:36;7.45;;;6.72;;
77402;SDS011;66472;53.046;8.656;2023-06-05T17:14:31;9.57;;;8.57;;
77402;SDS011;66472;53.046;8.656;2023-06-05T17:19:26;8.57;;;7.75;;
77402;SDS011;66472;53.046;8.656;2023-06-05T17:24:21;7.25;;;6.63;;
77402;SDS011;66472;53.046;8.656;2023-06-05T17:29:19;7.47;;;5.78;;
77402;SDS011;66472;53.046;8.656;2023-06-05T17:34:14;5.82;;;5.25;;
77402;SDS011;66472;53.046;8.656;2023-06-05T17:39:10;5.80;;;5.35;;
77402;SDS011;66472;53.046;8.656;2023-06-05T17:44:05;7.47;;;5.97;;
77402;SDS011;66472;53.046;8.656;2023-06-05T17:49:01;9.20;;;7.25;;
77402;SDS011;66472;53.046;8.656;2023-06-05T17:53:56;6.67;;;5.70;;
77402;SDS011;66472;53.046;8.656;2023-06-05T17:58:51;8.80;;;7.10;;
77402;SDS011;66472;53.046;8.656;2023-06-05T18:03:46;8.38;;;6.80;;
77402;SDS011;66472;53.046;8.656;2023-06-05T18:08:42;6.88;;;6.35;;
77402;SDS011;66472;53.046;8.656;2023-06-05T18:13:37;7.73;;;7.17;;
77402;SDS011;66472;53.046;8.656;2023-06-05T18:18:32;8.87;;;6.97;;
77402;SDS011;66472;53.046;8.656;2023-06-05T18:23:28;7.40;;;6.90;;
77402;SDS011;66472;53.046;8.656;2023-06-05T18:28:24;7.33;;;6.77;;
77402;SDS011;66472;53.046;8.656;2023-06-05T18:33:21;5.93;;;5.50;;
77402;SDS011;66472;53.046;8.656;2023-06-05T18:38:16;7.23;;;6.53;;
77402;SDS011;66472;53.046;8.656;2023-06-05T18:43:11;8.47;;;7.73;;
77402;SDS011;66472;53.046;8.656;2023-06-05T18:48:07;10.63;;;9.73;;
77402;SDS011;66472;53.046;8.656;2023-06-05T18:53:02;11.80;;;10.70;;
77402;SDS011;66472;53.046;8.656;2023-06-05T18:57:58;13.57;;;12.57;;
77402;SDS011;66472;53.046;8.656;2023-06-05T19:02:54;13.03;;;12.13;;
77402;SDS011;66472;53.046;8.656;2023-06-05T19:07:50;14.27;;;13.00;;
77402;SDS011;66472;53.046;8.656;2023-06-05T19:12:45;13.97;;;12.93;;
77402;SDS011;66472;53.046;8.656;2023-06-05T19:17:42;12.70;;;11.60;;
77402;SDS011;66472;53.046;8.656;2023-06-05T19:22:37;13.90;;;12.77;;
77402;SDS011;66472;53.046;8.656;2023-06-05T19:27:32;13.60;;;12.68;;
77402;SDS011;66472;53.046;8.656;2023-06-05T19:32:28;17.30;;;16.00;;
77402;SDS011;66472;53.046;8.656;2023-06-05T19:37:23;14.52;;;13.43;;
77402;SDS011;66472;53.046;8.656;2023-06-05T19:42:18;14.10;;;13.17;;
77402;SDS011;66472;53.046;8.656;2023-06-05T19:47:13;14.27;;;13.17;;
77402;SDS011;66472;53.046;8.656;2023-06-05T19:52:09;14.17;;;12.70;;
77402;SDS011;66472;53.046;8.656;2023-06-05T19:57:04;14.82;;;13.82;;
77402;SDS011;66472;53.046;8.656;2023-06-05T20:02:00;15.73;;;14.57;;
77402;SDS011;66472;53.046;8.656;2023-06-05T20:06:55;15.57;;;14.30;;
77402;SDS011;66472;53.046;8.656;2023-06-05T20:11:50;17.42;;;16.20;;
77402;SDS011;66472;53.046;8.656;2023-06-05T20:16:46;16.83;;;15.55;;
77402;SDS011;66472;53.046;8.656;2023-06-05T20:21:42;17.40;;;16.02;;
77402;SDS011;66472;53.046;8.656;2023-06-05T20:26:38;18.27;;;16.87;;
77402;SDS011;66472;53.046;8.656;2023-06-05T20:31:33;19.77;;;18.07;;
77402;SDS011;66472;53.046;8.656;2023-06-05T20:36:29;16.80;;;15.60;;
77402;SDS011;66472;53.046;8.656;2023-06-05T20:41:25;18.97;;;17.47;;
77402;SDS011;66472;53.046;8.656;2023-06-05T20:46:22;17.83;;;16.33;;
77402;SDS011;66472;53.046;8.656;2023-06-05T20:51:18;19.53;;;18.00;;
77402;SDS011;66472;53.046;8.656;2023-06-05T20:56:25;18.50;;;16.83;;
77402;SDS011;66472;53.046;8.656;2023-06-05T21:01:21;18.30;;;16.67;;
77402;SDS011;66472;53.046;8.656;2023-06-05T21:06:17;19.60;;;18.10;;
77402;SDS011;66472;53.046;8.656;2023-06-05T21:11:12;19.03;;;17.37;;
77402;SDS011;66472;53.046;8.656;2023-06-05T21:16:07;17.92;;;16.48;;
77402;SDS011;66472;53.046;8.656;2023-06-05T21:21:03;19.13;;;17.63;;
77402;SDS011;66472;53.046;8.656;2023-06-05T21:25:58;18.60;;;17.27;;
77402;SDS011;66472;53.046;8.656;2023-06-05T21:30:54;16.77;;;15.10;;
77402;SDS011;66472;53.046;8.656;2023-06-05T21:35:53;17.53;;;16.07;;
77402;SDS011;66472;53.046;8.656;2023-06-05T21:40:48;19.47;;;17.97;;
77402;SDS011;66472;53.046;8.656;2023-06-05T21:45:44;20.73;;;19.23;;
77402;SDS011;66472;53.046;8.656;2023-06-05T21:50:40;21.57;;;20.13;;
77402;SDS011;66472;53.046;8.656;2023-06-05T21:55:35;24.80;;;22.98;;
77402;SDS011;66472;53.046;8.656;2023-06-05T22:00:30;22.43;;;20.90;;
77402;SDS011;66472;53.046;8.656;2023-06-05T22:05:26;26.40;;;24.30;;
77402;SDS011;66472;53.046;8.656;2023-06-05T22:10:25;24.20;;;22.33;;
77402;SDS011;66472;53.046;8.656;2023-06-05T22:15:20;26.23;;;24.10;;
77402;SDS011;66472;53.046;8.656;2023-06-05T22:20:17;26.57;;;24.17;;
77402;SDS011;66472;53.046;8.656;2023-06-05T22:25:12;28.50;;;26.50;;
77402;SDS011;66472;53.046;8.656;2023-06-05T22:30:08;29.63;;;27.50;;
77402;SDS011;66472;53.046;8.656;2023-06-05T22:35:03;26.60;;;24.10;;
77402;SDS011;66472;53.046;8.656;2023-06-05T22:40:00;28.37;;;26.43;;
77402;SDS011;66472;53.046;8.656;2023-06-05T22:44:55;28.77;;;26.63;;
77402;SDS011;66472;53.046;8.656;2023-06-05T22:49:51;29.00;;;26.67;;
77402;SDS011;66472;53.046;8.656;2023-06-05T22:54:49;32.77;;;30.60;;
77402;SDS011;66472;53.046;8.656;2023-06-05T22:59:45;37.63;;;34.87;;
77402;SDS011;66472;53.046;8.656;2023-06-05T23:04:43;37.63;;;34.60;;
77402;SDS011;66472;53.046;8.656;2023-06-05T23:09:40;34.57;;;32.53;;
77402;SDS011;66472;53.046;8.656;2023-06-05T23:14:35;34.77;;;32.27;;
77402;SDS011;66472;53.046;8.656;2023-06-05T23:19:31;35.60;;;33.20;;
77402;SDS011;66472;53.046;8.656;2023-06-05T23:24:26;35.92;;;33.70;;
77402;SDS011;66472;53.046;8.656;2023-06-05T23:29:21;41.05;;;38.35;;
77402;SDS011;66472;53.046;8.656;2023-06-05T23:34:17;41.83;;;38.63;;
77402;SDS011;66472;53.046;8.656;2023-06-05T23:39:12;40.50;;;37.97;;
77402;SDS011;66472;53.046;8.656;2023-06-05T23:44:08;37.07;;;34.53;;
77402;SDS011;66472;53.046;8.656;2023-06-05T23:49:04;43.20;;;40.07;;
77402;SDS011;66472;53.046;8.656;2023-06-05T23:53:59;40.37;;;37.47;;
77402;SDS011;66472;53.046;8.656;2023-06-05T23:58:54;44.70;;;41.67;;
